Angel Albino Corzo International Airport
MMTG : now visible

Airfield :











YOU CAN JOIN US ON...

 
LOGIN :

Register | Disclaimer

   EN    FR    IT 

 









Legend :    VFR   Marginal VFR   IFR   Intensive IFR   Very Intensive IFR
Visi :
Ceiling :
>= 8 km
>= 3000ft
5 to 8 km
1000 to 3000 ft
1500m to 5 km
500 to 1000 ft
800 to 1500m
200 to 500 ft
< 800m
< 200 ft
Symbols :   Thunderstorms  Fog  Heavy snow  Heavy precipitations  Wind > 20 kt






- Airport Elevation : 1499 ft


MMTG - Angel Albino Corzo International

CURRENT METAR :
  • 282243Z 22005KT 10SM BKN080 31/12 A2984 RMK 8/030 FU DSTNT S / ISOL SC

EXPIRED METARs :
  • 282144Z 22010KT 10SM FEW025 SCT080 33/11 A2983 RMK 8/430 FU DSTNT S / ISOL CI
  • 282042Z 14010G20KT 10SM SCT025 SCT300 33/10 A2984 RMK SLP071 56033 967 8/109

TAF TAF MMTG
Valid from the 28 at 18:00 until the 29 at 18:00 UTC


281702Z 2818/2918 17015KT P6SM SKC
BECMG 2901/2902 00000KT
FM290900 00000KT 3SM BR OVC010
FM291600 02010KT 4SM HZ SCT015



MET'MAP, your aeronautical weather chart ! - Copyright ORBIFLY December 2007 - Disclaimer

ORBIFLY MET'MAP TEAM :

Programming & Development : Alexandra Zaïnal
Concept & original design : Baudouin d'Aumeries
Assistance for programming : Marc-Olivier Méhu
Technical & hardware support : Manuel Goepfert

Contact : metmap@orbifly.com




SOURCES & CREDITS :

   NOAA       Earth
Advisory